Birmingham, AL (35235)

6:15 PM CST on February 26, 2015 (GMT -0600)
Kidron | Change Station
CLOSE
Current Station
Personal Weather Station
Location: Trussville, AL
Elevation: 9 ft
Nearby Weather Stations

Elev 9 ft 33.65 °N, 86.62 °W | Updated 9 seconds ago

Mostly Cloudy
Mostly Cloudy
32.9 °F
Feels Like 33 °F
N
1.0
Wind Variable Wind from NW
Gusts 2.0 mph

Today
High -- | Low -- °F
--% Chance of Precip.
Yesterday
High -- | Low -- °F
Precip. -- in
6:18 AM 5:40 PM
Waxing Gibbous, 63% visible
Pressure 30.18 in
Visibility 10.0 miles
Clouds Scattered Clouds 7000 ft
Windchill 33 °F
Dew Point 32 °F
Humidity 96%
Rainfall 0.18 in
Snow Depth Not available.
UV 0 out of 12
Pollen 5.30 out of 12
Air Quality Not available.
Flu Activity Not available.
METAR KBHM 262353Z 35004KT 10SM SCT070 02/M01 A3017 RMK AO2 SLP218 T00171011 10039 20011 53022

More Conditions Fewer Conditions

Pressure 30.18 in
Visibility 10.0 miles
Clouds Scattered Clouds 7000 ft
Windchill 33 °F
Dew Point 32 °F
Humidity 96%
Rainfall 0.18 in
Snow Depth Not available.
UV 0 out of 12
Pollen 5.30 out of 12
Air Quality Not available.
Flu Activity Not available.
METAR KBHM 262353Z 35004KT 10SM SCT070 02/M01 A3017 RMK AO2 SLP218 T00171011 10039 20011 53022

More Conditions Fewer Conditions

10-Day Weather Forecast

Almanac

Astronomy

Feb. 26, 2015 Rise Set
Actual Time
Civil Twilight
Nautical Twilight
Astronomical Twilight
Moon
Length of Visible Light
Length of Day
Tomorrow will be .
, % of the Moon is Illuminated

Today's Extremes

State Highs State Lows

Community

WunderPhotos

Upload Photos

1,800,541 photos uploaded!

WunderBlogs® & News

Nearby

Air Quality

  Air Quality AQ Index Pollutant
Not available.

Snow Depth

Station Depth Elevation

Earthquake Activity

City Distance Mag. Time & Date
Minimum magnitude displayed is 2.5.

Coastal Water Temperatures

Place Temperature

Nearby Weather Stations